sensor_id;sensor_type;location;lat;lon;timestamp;P1;durP1;ratioP1;P2;durP2;ratioP2
17858;SDS011;35426;30.698;104.050;2022-09-09T00:01:03;99.93;;;61.43;;
17858;SDS011;35426;30.698;104.050;2022-09-09T00:03:42;104.20;;;61.60;;
17858;SDS011;35426;30.698;104.050;2022-09-09T00:06:21;107.57;;;62.83;;
17858;SDS011;35426;30.698;104.050;2022-09-09T00:09:02;98.57;;;61.87;;
17858;SDS011;35426;30.698;104.050;2022-09-09T00:11:42;98.30;;;61.80;;
17858;SDS011;35426;30.698;104.050;2022-09-09T00:14:21;101.23;;;59.83;;
17858;SDS011;35426;30.698;104.050;2022-09-09T00:17:01;97.00;;;58.80;;
17858;SDS011;35426;30.698;104.050;2022-09-09T00:19:38;96.10;;;59.07;;
17858;SDS011;35426;30.698;104.050;2022-09-09T00:22:20;96.43;;;57.93;;
17858;SDS011;35426;30.698;104.050;2022-09-09T00:24:57;90.60;;;56.83;;
17858;SDS011;35426;30.698;104.050;2022-09-09T00:27:42;87.27;;;54.13;;
17858;SDS011;35426;30.698;104.050;2022-09-09T00:30:19;83.00;;;51.93;;
17858;SDS011;35426;30.698;104.050;2022-09-09T00:32:55;75.87;;;51.43;;
17858;SDS011;35426;30.698;104.050;2022-09-09T00:35:32;81.97;;;50.20;;
17858;SDS011;35426;30.698;104.050;2022-09-09T00:38:10;78.10;;;47.97;;
17858;SDS011;35426;30.698;104.050;2022-09-09T00:40:48;68.00;;;44.37;;
17858;SDS011;35426;30.698;104.050;2022-09-09T00:43:27;76.53;;;47.23;;
17858;SDS011;35426;30.698;104.050;2022-09-09T00:46:14;71.90;;;47.97;;
17858;SDS011;35426;30.698;104.050;2022-09-09T00:49:09;67.87;;;45.33;;
17858;SDS011;35426;30.698;104.050;2022-09-09T00:51:58;77.10;;;47.40;;
17858;SDS011;35426;30.698;104.050;2022-09-09T00:54:43;64.93;;;44.57;;
17858;SDS011;35426;30.698;104.050;2022-09-09T00:57:28;78.73;;;49.30;;
17858;SDS011;35426;30.698;104.050;2022-09-09T01:00:20;81.27;;;52.63;;
17858;SDS011;35426;30.698;104.050;2022-09-09T01:03:12;81.53;;;52.70;;
17858;SDS011;35426;30.698;104.050;2022-09-09T01:06:11;82.87;;;53.67;;
17858;SDS011;35426;30.698;104.050;2022-09-09T01:08:59;85.90;;;54.93;;
17858;SDS011;35426;30.698;104.050;2022-09-09T01:11:45;80.07;;;53.10;;
17858;SDS011;35426;30.698;104.050;2022-09-09T01:14:35;74.30;;;50.50;;
17858;SDS011;35426;30.698;104.050;2022-09-09T01:17:17;73.77;;;49.50;;
17858;SDS011;35426;30.698;104.050;2022-09-09T01:20:06;71.57;;;47.50;;
17858;SDS011;35426;30.698;104.050;2022-09-09T01:22:56;72.77;;;45.93;;
17858;SDS011;35426;30.698;104.050;2022-09-09T01:26:02;62.93;;;42.30;;
17858;SDS011;35426;30.698;104.050;2022-09-09T01:28:43;62.78;;;43.00;;
17858;SDS011;35426;30.698;104.050;2022-09-09T01:31:22;62.90;;;40.92;;
17858;SDS011;35426;30.698;104.050;2022-09-09T01:33:59;57.08;;;38.40;;
17858;SDS011;35426;30.698;104.050;2022-09-09T01:36:33;49.72;;;33.95;;
17858;SDS011;35426;30.698;104.050;2022-09-09T01:39:11;48.28;;;33.58;;
17858;SDS011;35426;30.698;104.050;2022-09-09T01:41:51;55.28;;;36.08;;
17858;SDS011;35426;30.698;104.050;2022-09-09T01:44:27;50.78;;;33.40;;
17858;SDS011;35426;30.698;104.050;2022-09-09T01:47:01;46.90;;;32.90;;
17858;SDS011;35426;30.698;104.050;2022-09-09T01:49:46;48.28;;;31.55;;
17858;SDS011;35426;30.698;104.050;2022-09-09T01:52:24;44.50;;;29.90;;
17858;SDS011;35426;30.698;104.050;2022-09-09T01:54:58;46.42;;;31.60;;
17858;SDS011;35426;30.698;104.050;2022-09-09T01:57:39;43.63;;;29.40;;
17858;SDS011;35426;30.698;104.050;2022-09-09T02:00:21;41.97;;;29.08;;
17858;SDS011;35426;30.698;104.050;2022-09-09T02:02:59;42.38;;;29.58;;
17858;SDS011;35426;30.698;104.050;2022-09-09T02:05:50;40.15;;;28.95;;
17858;SDS011;35426;30.698;104.050;2022-09-09T02:08:33;45.72;;;30.90;;
17858;SDS011;35426;30.698;104.050;2022-09-09T02:11:14;41.20;;;30.20;;
17858;SDS011;35426;30.698;104.050;2022-09-09T02:14:12;41.38;;;29.08;;
17858;SDS011;35426;30.698;104.050;2022-09-09T02:16:51;45.15;;;29.70;;
17858;SDS011;35426;30.698;104.050;2022-09-09T02:19:49;41.10;;;30.42;;
17858;SDS011;35426;30.698;104.050;2022-09-09T02:22:53;45.78;;;31.65;;
17858;SDS011;35426;30.698;104.050;2022-09-09T02:25:30;46.88;;;31.38;;
17858;SDS011;35426;30.698;104.050;2022-09-09T02:28:15;42.30;;;31.23;;
17858;SDS011;35426;30.698;104.050;2022-09-09T02:30:58;46.22;;;32.05;;
17858;SDS011;35426;30.698;104.050;2022-09-09T02:33:42;48.05;;;32.47;;
17858;SDS011;35426;30.698;104.050;2022-09-09T02:36:19;48.20;;;32.28;;
17858;SDS011;35426;30.698;104.050;2022-09-09T02:38:56;48.17;;;34.60;;
17858;SDS011;35426;30.698;104.050;2022-09-09T02:41:33;45.47;;;32.95;;
17858;SDS011;35426;30.698;104.050;2022-09-09T02:44:10;45.53;;;32.75;;
17858;SDS011;35426;30.698;104.050;2022-09-09T02:46:56;49.20;;;33.78;;
17858;SDS011;35426;30.698;104.050;2022-09-09T02:49:45;51.40;;;36.28;;
17858;SDS011;35426;30.698;104.050;2022-09-09T02:52:30;56.20;;;37.47;;
17858;SDS011;35426;30.698;104.050;2022-09-09T02:55:11;47.08;;;33.60;;
17858;SDS011;35426;30.698;104.050;2022-09-09T02:57:52;55.28;;;36.42;;
17858;SDS011;35426;30.698;104.050;2022-09-09T03:00:29;57.70;;;37.80;;
17858;SDS011;35426;30.698;104.050;2022-09-09T03:03:05;52.70;;;34.28;;
17858;SDS011;35426;30.698;104.050;2022-09-09T03:05:40;49.35;;;32.53;;
17858;SDS011;35426;30.698;104.050;2022-09-09T03:08:14;51.15;;;32.58;;
17858;SDS011;35426;30.698;104.050;2022-09-09T03:10:48;55.85;;;34.80;;
17858;SDS011;35426;30.698;104.050;2022-09-09T03:13:25;55.50;;;35.60;;
17858;SDS011;35426;30.698;104.050;2022-09-09T03:15:59;49.83;;;34.63;;
17858;SDS011;35426;30.698;104.050;2022-09-09T03:18:41;53.63;;;34.17;;
17858;SDS011;35426;30.698;104.050;2022-09-09T03:21:15;49.53;;;32.33;;
17858;SDS011;35426;30.698;104.050;2022-09-09T03:23:49;54.08;;;35.85;;
17858;SDS011;35426;30.698;104.050;2022-09-09T03:26:24;53.25;;;34.40;;
17858;SDS011;35426;30.698;104.050;2022-09-09T03:28:57;55.92;;;35.05;;
17858;SDS011;35426;30.698;104.050;2022-09-09T03:31:31;50.33;;;34.35;;
17858;SDS011;35426;30.698;104.050;2022-09-09T03:34:08;51.78;;;34.67;;
17858;SDS011;35426;30.698;104.050;2022-09-09T03:36:42;55.95;;;35.50;;
17858;SDS011;35426;30.698;104.050;2022-09-09T03:39:18;53.67;;;33.80;;
17858;SDS011;35426;30.698;104.050;2022-09-09T03:41:55;52.38;;;35.03;;
17858;SDS011;35426;30.698;104.050;2022-09-09T03:44:29;56.72;;;35.13;;
17858;SDS011;35426;30.698;104.050;2022-09-09T03:47:02;50.47;;;34.72;;
17858;SDS011;35426;30.698;104.050;2022-09-09T03:50:10;49.65;;;33.17;;
17858;SDS011;35426;30.698;104.050;2022-09-09T03:52:46;51.15;;;32.58;;
17858;SDS011;35426;30.698;104.050;2022-09-09T03:55:34;53.78;;;35.25;;
17858;SDS011;35426;30.698;104.050;2022-09-09T03:58:08;55.95;;;34.55;;
17858;SDS011;35426;30.698;104.050;2022-09-09T04:01:05;52.10;;;33.60;;
17858;SDS011;35426;30.698;104.050;2022-09-09T04:03:40;50.15;;;32.40;;
17858;SDS011;35426;30.698;104.050;2022-09-09T04:06:36;54.17;;;33.05;;
17858;SDS011;35426;30.698;104.050;2022-09-09T04:09:10;52.22;;;33.42;;
17858;SDS011;35426;30.698;104.050;2022-09-09T04:11:44;49.45;;;31.25;;
17858;SDS011;35426;30.698;104.050;2022-09-09T04:14:18;52.47;;;33.00;;
17858;SDS011;35426;30.698;104.050;2022-09-09T04:16:52;56.05;;;34.20;;
17858;SDS011;35426;30.698;104.050;2022-09-09T04:19:26;52.88;;;33.42;;
17858;SDS011;35426;30.698;104.050;2022-09-09T04:22:03;51.83;;;32.38;;
17858;SDS011;35426;30.698;104.050;2022-09-09T04:24:37;49.10;;;31.17;;
17858;SDS011;35426;30.698;104.050;2022-09-09T04:27:18;52.63;;;33.80;;
17858;SDS011;35426;30.698;104.050;2022-09-09T04:29:51;60.00;;;33.47;;
17858;SDS011;35426;30.698;104.050;2022-09-09T04:32:27;52.92;;;32.83;;
17858;SDS011;35426;30.698;104.050;2022-09-09T04:35:06;50.65;;;31.73;;
17858;SDS011;35426;30.698;104.050;2022-09-09T04:37:42;53.88;;;32.67;;
17858;SDS011;35426;30.698;104.050;2022-09-09T04:40:17;49.85;;;30.75;;
17858;SDS011;35426;30.698;104.050;2022-09-09T04:42:50;49.55;;;31.67;;
17858;SDS011;35426;30.698;104.050;2022-09-09T04:45:25;51.90;;;35.05;;
17858;SDS011;35426;30.698;104.050;2022-09-09T04:48:02;54.30;;;34.03;;
17858;SDS011;35426;30.698;104.050;2022-09-09T04:50:36;52.10;;;32.25;;
17858;SDS011;35426;30.698;104.050;2022-09-09T04:53:14;56.97;;;34.60;;
17858;SDS011;35426;30.698;104.050;2022-09-09T04:55:47;50.67;;;34.38;;
17858;SDS011;35426;30.698;104.050;2022-09-09T04:58:21;53.00;;;33.05;;
17858;SDS011;35426;30.698;104.050;2022-09-09T05:00:55;54.28;;;34.47;;
17858;SDS011;35426;30.698;104.050;2022-09-09T05:03:38;62.60;;;34.60;;
17858;SDS011;35426;30.698;104.050;2022-09-09T05:06:13;56.35;;;35.58;;
17858;SDS011;35426;30.698;104.050;2022-09-09T05:08:51;59.03;;;35.42;;
17858;SDS011;35426;30.698;104.050;2022-09-09T05:11:29;58.25;;;35.70;;
17858;SDS011;35426;30.698;104.050;2022-09-09T05:14:29;66.90;;;38.10;;
17858;SDS011;35426;30.698;104.050;2022-09-09T05:17:02;62.28;;;38.83;;
17858;SDS011;35426;30.698;104.050;2022-09-09T05:19:38;68.82;;;39.35;;
17858;SDS011;35426;30.698;104.050;2022-09-09T05:22:12;61.75;;;37.65;;
17858;SDS011;35426;30.698;104.050;2022-09-09T05:24:55;68.57;;;40.08;;
17858;SDS011;35426;30.698;104.050;2022-09-09T05:27:30;75.95;;;43.60;;
17858;SDS011;35426;30.698;104.050;2022-09-09T05:30:07;67.63;;;40.00;;
17858;SDS011;35426;30.698;104.050;2022-09-09T05:32:56;71.47;;;39.53;;
17858;SDS011;35426;30.698;104.050;2022-09-09T05:35:30;69.28;;;39.30;;
17858;SDS011;35426;30.698;104.050;2022-09-09T05:38:04;70.28;;;41.60;;
17858;SDS011;35426;30.698;104.050;2022-09-09T05:40:40;56.65;;;38.58;;
17858;SDS011;35426;30.698;104.050;2022-09-09T05:43:20;69.25;;;41.85;;
17858;SDS011;35426;30.698;104.050;2022-09-09T05:46:04;79.15;;;43.33;;
17858;SDS011;35426;30.698;104.050;2022-09-09T05:48:39;71.55;;;41.88;;
17858;SDS011;35426;30.698;104.050;2022-09-09T05:51:16;76.35;;;44.55;;
17858;SDS011;35426;30.698;104.050;2022-09-09T05:53:51;78.55;;;44.95;;
17858;SDS011;35426;30.698;104.050;2022-09-09T05:56:33;80.53;;;46.20;;
17858;SDS011;35426;30.698;104.050;2022-09-09T05:59:08;74.32;;;41.95;;
17858;SDS011;35426;30.698;104.050;2022-09-09T06:01:42;73.57;;;43.08;;
17858;SDS011;35426;30.698;104.050;2022-09-09T06:04:24;76.32;;;44.80;;
17858;SDS011;35426;30.698;104.050;2022-09-09T06:06:59;70.75;;;44.60;;
17858;SDS011;35426;30.698;104.050;2022-09-09T06:09:40;76.88;;;45.42;;
17858;SDS011;35426;30.698;104.050;2022-09-09T06:12:16;76.35;;;45.88;;
17858;SDS011;35426;30.698;104.050;2022-09-09T06:14:50;76.05;;;46.67;;
17858;SDS011;35426;30.698;104.050;2022-09-09T06:17:23;75.82;;;45.60;;
17858;SDS011;35426;30.698;104.050;2022-09-09T06:22:57;72.30;;;41.58;;
17858;SDS011;35426;30.698;104.050;2022-09-09T06:25:33;72.38;;;44.83;;
17858;SDS011;35426;30.698;104.050;2022-09-09T06:28:28;72.28;;;43.05;;
17858;SDS011;35426;30.698;104.050;2022-09-09T06:31:01;64.10;;;41.03;;
17858;SDS011;35426;30.698;104.050;2022-09-09T06:33:37;68.03;;;43.65;;
17858;SDS011;35426;30.698;104.050;2022-09-09T06:36:13;76.25;;;46.17;;
17858;SDS011;35426;30.698;104.050;2022-09-09T06:38:50;71.45;;;44.13;;
17858;SDS011;35426;30.698;104.050;2022-09-09T06:41:36;66.15;;;42.78;;
17858;SDS011;35426;30.698;104.050;2022-09-09T06:44:35;64.72;;;41.35;;
17858;SDS011;35426;30.698;104.050;2022-09-09T06:47:15;68.15;;;41.35;;
17858;SDS011;35426;30.698;104.050;2022-09-09T06:49:48;68.15;;;42.15;;
17858;SDS011;35426;30.698;104.050;2022-09-09T06:52:23;58.42;;;38.42;;
17858;SDS011;35426;30.698;104.050;2022-09-09T06:55:02;60.20;;;38.50;;
17858;SDS011;35426;30.698;104.050;2022-09-09T06:57:55;62.67;;;38.05;;
17858;SDS011;35426;30.698;104.050;2022-09-09T07:00:32;58.30;;;37.90;;
17858;SDS011;35426;30.698;104.050;2022-09-09T07:03:07;57.05;;;37.53;;
17858;SDS011;35426;30.698;104.050;2022-09-09T07:05:41;55.60;;;38.47;;
17858;SDS011;35426;30.698;104.050;2022-09-09T07:08:24;52.00;;;34.60;;
17858;SDS011;35426;30.698;104.050;2022-09-09T07:11:25;51.25;;;31.90;;
17858;SDS011;35426;30.698;104.050;2022-09-09T07:14:01;53.25;;;32.05;;
17858;SDS011;35426;30.698;104.050;2022-09-09T07:19:38;41.45;;;27.50;;
17858;SDS011;35426;30.698;104.050;2022-09-09T07:22:13;40.97;;;26.35;;
17858;SDS011;35426;30.698;104.050;2022-09-09T07:24:58;41.58;;;27.30;;
17858;SDS011;35426;30.698;104.050;2022-09-09T07:27:33;37.58;;;24.75;;
17858;SDS011;35426;30.698;104.050;2022-09-09T07:30:06;39.78;;;24.45;;
17858;SDS011;35426;30.698;104.050;2022-09-09T07:32:52;35.78;;;24.23;;
17858;SDS011;35426;30.698;104.050;2022-09-09T07:35:39;35.17;;;23.58;;
17858;SDS011;35426;30.698;104.050;2022-09-09T07:38:12;38.28;;;24.55;;
17858;SDS011;35426;30.698;104.050;2022-09-09T07:40:47;38.80;;;23.23;;
17858;SDS011;35426;30.698;104.050;2022-09-09T07:43:25;35.10;;;22.63;;
17858;SDS011;35426;30.698;104.050;2022-09-09T07:45:59;40.75;;;25.63;;
17858;SDS011;35426;30.698;104.050;2022-09-09T07:48:34;34.90;;;23.38;;
17858;SDS011;35426;30.698;104.050;2022-09-09T07:51:10;39.42;;;22.63;;
17858;SDS011;35426;30.698;104.050;2022-09-09T07:53:51;30.42;;;21.48;;
17858;SDS011;35426;30.698;104.050;2022-09-09T07:56:25;35.17;;;21.20;;
17858;SDS011;35426;30.698;104.050;2022-09-09T07:59:02;31.67;;;21.17;;
17858;SDS011;35426;30.698;104.050;2022-09-09T08:01:37;31.88;;;20.95;;
17858;SDS011;35426;30.698;104.050;2022-09-09T08:04:33;31.13;;;21.58;;
17858;SDS011;35426;30.698;104.050;2022-09-09T08:07:20;33.75;;;20.77;;
17858;SDS011;35426;30.698;104.050;2022-09-09T08:09:55;29.17;;;20.30;;
17858;SDS011;35426;30.698;104.050;2022-09-09T08:12:40;28.35;;;18.08;;
17858;SDS011;35426;30.698;104.050;2022-09-09T08:15:35;28.73;;;18.33;;
17858;SDS011;35426;30.698;104.050;2022-09-09T08:18:09;30.50;;;19.52;;
17858;SDS011;35426;30.698;104.050;2022-09-09T08:20:48;29.00;;;18.50;;
17858;SDS011;35426;30.698;104.050;2022-09-09T08:23:23;28.58;;;18.52;;
17858;SDS011;35426;30.698;104.050;2022-09-09T08:26:03;28.00;;;19.27;;
17858;SDS011;35426;30.698;104.050;2022-09-09T08:28:38;27.70;;;19.17;;
17858;SDS011;35426;30.698;104.050;2022-09-09T08:31:14;32.30;;;19.55;;
17858;SDS011;35426;30.698;104.050;2022-09-09T08:33:49;29.63;;;18.75;;
17858;SDS011;35426;30.698;104.050;2022-09-09T08:36:31;30.00;;;18.38;;
17858;SDS011;35426;30.698;104.050;2022-09-09T08:39:06;28.75;;;18.70;;
17858;SDS011;35426;30.698;104.050;2022-09-09T08:41:53;29.03;;;19.60;;
17858;SDS011;35426;30.698;104.050;2022-09-09T08:44:44;31.25;;;19.85;;
17858;SDS011;35426;30.698;104.050;2022-09-09T08:47:32;27.87;;;18.67;;
17858;SDS011;35426;30.698;104.050;2022-09-09T08:50:30;30.10;;;19.60;;
17858;SDS011;35426;30.698;104.050;2022-09-09T08:53:19;26.77;;;18.77;;
17858;SDS011;35426;30.698;104.050;2022-09-09T08:55:59;31.07;;;19.47;;
17858;SDS011;35426;30.698;104.050;2022-09-09T08:58:47;29.17;;;19.90;;
17858;SDS011;35426;30.698;104.050;2022-09-09T09:01:42;37.50;;;23.23;;
17858;SDS011;35426;30.698;104.050;2022-09-09T09:05:04;28.20;;;20.33;;
17858;SDS011;35426;30.698;104.050;2022-09-09T09:07:53;27.20;;;19.27;;
17858;SDS011;35426;30.698;104.050;2022-09-09T09:10:42;28.40;;;18.10;;
17858;SDS011;35426;30.698;104.050;2022-09-09T09:13:24;29.55;;;18.90;;
17858;SDS011;35426;30.698;104.050;2022-09-09T09:16:17;25.00;;;17.63;;
17858;SDS011;35426;30.698;104.050;2022-09-09T09:18:55;28.17;;;18.65;;
17858;SDS011;35426;30.698;104.050;2022-09-09T09:21:36;26.87;;;18.87;;
17858;SDS011;35426;30.698;104.050;2022-09-09T09:24:16;32.58;;;18.30;;
17858;SDS011;35426;30.698;104.050;2022-09-09T09:26:58;27.93;;;18.87;;
17858;SDS011;35426;30.698;104.050;2022-09-09T09:29:45;31.40;;;18.90;;
17858;SDS011;35426;30.698;104.050;2022-09-09T09:32:55;28.40;;;19.30;;
17858;SDS011;35426;30.698;104.050;2022-09-09T09:35:33;31.17;;;19.30;;
17858;SDS011;35426;30.698;104.050;2022-09-09T09:38:16;29.43;;;19.00;;
17858;SDS011;35426;30.698;104.050;2022-09-09T09:41:05;29.57;;;19.40;;
17858;SDS011;35426;30.698;104.050;2022-09-09T09:43:52;31.77;;;18.43;;
17858;SDS011;35426;30.698;104.050;2022-09-09T09:46:28;28.27;;;18.80;;
17858;SDS011;35426;30.698;104.050;2022-09-09T09:49:13;28.30;;;18.20;;
17858;SDS011;35426;30.698;104.050;2022-09-09T09:51:47;33.07;;;20.07;;
17858;SDS011;35426;30.698;104.050;2022-09-09T09:54:24;29.17;;;19.47;;
17858;SDS011;35426;30.698;104.050;2022-09-09T09:57:23;29.57;;;19.50;;
17858;SDS011;35426;30.698;104.050;2022-09-09T10:00:12;31.13;;;19.97;;
17858;SDS011;35426;30.698;104.050;2022-09-09T10:02:55;29.33;;;19.50;;
17858;SDS011;35426;30.698;104.050;2022-09-09T10:05:35;35.83;;;20.87;;
17858;SDS011;35426;30.698;104.050;2022-09-09T10:08:18;30.53;;;20.47;;
17858;SDS011;35426;30.698;104.050;2022-09-09T10:10:59;31.77;;;19.77;;
17858;SDS011;35426;30.698;104.050;2022-09-09T10:13:59;30.77;;;20.80;;
17858;SDS011;35426;30.698;104.050;2022-09-09T10:16:43;30.50;;;19.90;;
17858;SDS011;35426;30.698;104.050;2022-09-09T10:19:29;32.13;;;20.13;;
17858;SDS011;35426;30.698;104.050;2022-09-09T10:22:10;28.50;;;20.30;;
17858;SDS011;35426;30.698;104.050;2022-09-09T10:25:03;34.80;;;20.80;;
17858;SDS011;35426;30.698;104.050;2022-09-09T10:27:53;31.53;;;20.80;;
17858;SDS011;35426;30.698;104.050;2022-09-09T10:30:43;28.70;;;20.20;;
17858;SDS011;35426;30.698;104.050;2022-09-09T10:33:28;31.13;;;21.07;;
17858;SDS011;35426;30.698;104.050;2022-09-09T10:36:09;33.80;;;20.37;;
17858;SDS011;35426;30.698;104.050;2022-09-09T10:38:57;36.63;;;22.10;;
17858;SDS011;35426;30.698;104.050;2022-09-09T10:41:39;32.57;;;22.20;;
17858;SDS011;35426;30.698;104.050;2022-09-09T10:44:36;34.23;;;21.50;;
17858;SDS011;35426;30.698;104.050;2022-09-09T10:47:30;40.87;;;23.50;;
17858;SDS011;35426;30.698;104.050;2022-09-09T10:53:35;34.87;;;22.67;;
17858;SDS011;35426;30.698;104.050;2022-09-09T10:56:44;42.50;;;23.93;;
17858;SDS011;35426;30.698;104.050;2022-09-09T10:59:25;40.37;;;24.23;;
17858;SDS011;35426;30.698;104.050;2022-09-09T11:02:12;37.67;;;23.53;;
17858;SDS011;35426;30.698;104.050;2022-09-09T11:05:05;41.27;;;25.37;;
17858;SDS011;35426;30.698;104.050;2022-09-09T11:11:03;36.07;;;25.60;;
17858;SDS011;35426;30.698;104.050;2022-09-09T11:13:42;45.23;;;27.30;;
17858;SDS011;35426;30.698;104.050;2022-09-09T11:16:23;41.30;;;26.83;;
17858;SDS011;35426;30.698;104.050;2022-09-09T11:19:02;45.87;;;26.40;;
17858;SDS011;35426;30.698;104.050;2022-09-09T11:21:44;42.83;;;26.87;;
17858;SDS011;35426;30.698;104.050;2022-09-09T11:24:37;42.67;;;28.83;;
17858;SDS011;35426;30.698;104.050;2022-09-09T11:27:13;42.67;;;26.93;;
17858;SDS011;35426;30.698;104.050;2022-09-09T11:30:19;41.43;;;27.10;;
17858;SDS011;35426;30.698;104.050;2022-09-09T11:33:33;42.07;;;27.97;;
17858;SDS011;35426;30.698;104.050;2022-09-09T11:36:33;49.47;;;28.50;;
17858;SDS011;35426;30.698;104.050;2022-09-09T11:39:48;53.00;;;30.63;;
17858;SDS011;35426;30.698;104.050;2022-09-09T11:42:33;51.53;;;30.47;;
17858;SDS011;35426;30.698;104.050;2022-09-09T11:45:11;47.40;;;30.43;;
17858;SDS011;35426;30.698;104.050;2022-09-09T11:47:54;45.83;;;31.27;;
17858;SDS011;35426;30.698;104.050;2022-09-09T11:50:32;49.73;;;31.43;;
17858;SDS011;35426;30.698;104.050;2022-09-09T11:56:02;48.77;;;32.07;;
17858;SDS011;35426;30.698;104.050;2022-09-09T11:58:40;49.50;;;32.07;;
17858;SDS011;35426;30.698;104.050;2022-09-09T12:01:28;49.13;;;33.33;;
17858;SDS011;35426;30.698;104.050;2022-09-09T12:04:30;51.53;;;32.53;;
17858;SDS011;35426;30.698;104.050;2022-09-09T12:07:21;49.37;;;32.67;;
17858;SDS011;35426;30.698;104.050;2022-09-09T12:10:05;51.77;;;32.07;;
17858;SDS011;35426;30.698;104.050;2022-09-09T12:13:07;53.93;;;34.73;;
17858;SDS011;35426;30.698;104.050;2022-09-09T12:15:49;57.37;;;36.33;;
17858;SDS011;35426;30.698;104.050;2022-09-09T12:18:24;50.63;;;34.70;;
17858;SDS011;35426;30.698;104.050;2022-09-09T12:21:07;55.30;;;36.17;;
17858;SDS011;35426;30.698;104.050;2022-09-09T12:23:51;53.70;;;36.57;;
17858;SDS011;35426;30.698;104.050;2022-09-09T12:26:31;63.80;;;38.33;;
17858;SDS011;35426;30.698;104.050;2022-09-09T12:29:11;61.20;;;39.47;;
17858;SDS011;35426;30.698;104.050;2022-09-09T12:31:55;61.97;;;38.50;;
17858;SDS011;35426;30.698;104.050;2022-09-09T12:34:34;60.67;;;37.40;;
17858;SDS011;35426;30.698;104.050;2022-09-09T12:37:16;55.67;;;36.43;;
17858;SDS011;35426;30.698;104.050;2022-09-09T12:39:58;59.00;;;35.50;;
17858;SDS011;35426;30.698;104.050;2022-09-09T12:42:39;54.23;;;33.70;;
17858;SDS011;35426;30.698;104.050;2022-09-09T12:45:17;51.13;;;33.23;;
17858;SDS011;35426;30.698;104.050;2022-09-09T12:47:53;49.93;;;31.80;;
17858;SDS011;35426;30.698;104.050;2022-09-09T12:50:30;50.47;;;30.83;;
17858;SDS011;35426;30.698;104.050;2022-09-09T12:53:20;46.60;;;30.10;;
17858;SDS011;35426;30.698;104.050;2022-09-09T12:55:58;54.63;;;30.57;;
17858;SDS011;35426;30.698;104.050;2022-09-09T12:58:33;49.37;;;30.83;;
17858;SDS011;35426;30.698;104.050;2022-09-09T13:01:21;43.87;;;30.53;;
17858;SDS011;35426;30.698;104.050;2022-09-09T13:04:19;46.00;;;29.13;;
17858;SDS011;35426;30.698;104.050;2022-09-09T13:06:53;46.73;;;29.57;;
17858;SDS011;35426;30.698;104.050;2022-09-09T13:09:39;45.70;;;28.97;;
17858;SDS011;35426;30.698;104.050;2022-09-09T13:12:18;47.93;;;28.80;;
17858;SDS011;35426;30.698;104.050;2022-09-09T13:14:55;42.13;;;28.30;;
17858;SDS011;35426;30.698;104.050;2022-09-09T13:17:31;41.83;;;27.70;;
17858;SDS011;35426;30.698;104.050;2022-09-09T13:20:06;44.07;;;30.10;;
17858;SDS011;35426;30.698;104.050;2022-09-09T13:22:48;44.03;;;28.17;;
17858;SDS011;35426;30.698;104.050;2022-09-09T13:25:24;47.27;;;29.97;;
17858;SDS011;35426;30.698;104.050;2022-09-09T13:28:00;42.03;;;29.97;;
17858;SDS011;35426;30.698;104.050;2022-09-09T13:30:34;49.97;;;29.43;;
17858;SDS011;35426;30.698;104.050;2022-09-09T13:33:21;39.07;;;26.97;;
17858;SDS011;35426;30.698;104.050;2022-09-09T13:35:55;41.50;;;28.20;;
17858;SDS011;35426;30.698;104.050;2022-09-09T13:38:31;38.70;;;26.93;;
17858;SDS011;35426;30.698;104.050;2022-09-09T13:41:08;40.23;;;26.10;;
17858;SDS011;35426;30.698;104.050;2022-09-09T13:44:14;36.93;;;25.97;;
17858;SDS011;35426;30.698;104.050;2022-09-09T13:47:01;38.07;;;25.87;;
17858;SDS011;35426;30.698;104.050;2022-09-09T13:49:40;36.13;;;25.00;;
17858;SDS011;35426;30.698;104.050;2022-09-09T13:52:15;40.17;;;24.93;;
17858;SDS011;35426;30.698;104.050;2022-09-09T13:54:52;38.37;;;27.27;;
17858;SDS011;35426;30.698;104.050;2022-09-09T13:57:49;39.47;;;27.17;;
17858;SDS011;35426;30.698;104.050;2022-09-09T14:00:37;40.83;;;27.97;;
17858;SDS011;35426;30.698;104.050;2022-09-09T14:03:13;41.90;;;27.70;;
17858;SDS011;35426;30.698;104.050;2022-09-09T14:05:52;40.07;;;27.47;;
17858;SDS011;35426;30.698;104.050;2022-09-09T14:08:29;42.93;;;27.33;;
17858;SDS011;35426;30.698;104.050;2022-09-09T14:11:07;43.17;;;28.37;;
17858;SDS011;35426;30.698;104.050;2022-09-09T14:13:49;48.10;;;29.73;;
17858;SDS011;35426;30.698;104.050;2022-09-09T14:16:35;37.63;;;27.30;;
17858;SDS011;35426;30.698;104.050;2022-09-09T14:19:09;46.07;;;30.57;;
17858;SDS011;35426;30.698;104.050;2022-09-09T14:21:44;40.83;;;27.70;;
17858;SDS011;35426;30.698;104.050;2022-09-09T14:24:19;43.13;;;30.83;;
17858;SDS011;35426;30.698;104.050;2022-09-09T14:26:54;46.10;;;31.43;;
17858;SDS011;35426;30.698;104.050;2022-09-09T14:29:28;48.00;;;29.67;;
17858;SDS011;35426;30.698;104.050;2022-09-09T14:32:04;43.93;;;29.20;;
17858;SDS011;35426;30.698;104.050;2022-09-09T14:35:03;45.50;;;28.50;;
17858;SDS011;35426;30.698;104.050;2022-09-09T14:37:40;44.97;;;30.00;;
17858;SDS011;35426;30.698;104.050;2022-09-09T14:40:16;44.20;;;29.50;;
17858;SDS011;35426;30.698;104.050;2022-09-09T14:42:50;48.00;;;30.03;;
17858;SDS011;35426;30.698;104.050;2022-09-09T14:45:27;43.93;;;29.90;;
17858;SDS011;35426;30.698;104.050;2022-09-09T14:48:01;38.20;;;27.80;;
17858;SDS011;35426;30.698;104.050;2022-09-09T14:50:35;45.17;;;28.93;;
17858;SDS011;35426;30.698;104.050;2022-09-09T14:53:11;43.97;;;30.30;;
17858;SDS011;35426;30.698;104.050;2022-09-09T14:55:47;45.50;;;29.83;;
17858;SDS011;35426;30.698;104.050;2022-09-09T14:58:20;40.97;;;29.23;;
17858;SDS011;35426;30.698;104.050;2022-09-09T15:01:02;45.60;;;28.40;;
17858;SDS011;35426;30.698;104.050;2022-09-09T15:03:37;43.03;;;30.17;;
17858;SDS011;35426;30.698;104.050;2022-09-09T15:06:12;46.87;;;30.10;;
17858;SDS011;35426;30.698;104.050;2022-09-09T15:08:54;42.10;;;28.80;;
17858;SDS011;35426;30.698;104.050;2022-09-09T15:11:30;41.93;;;29.23;;
17858;SDS011;35426;30.698;104.050;2022-09-09T15:14:08;44.47;;;29.93;;
17858;SDS011;35426;30.698;104.050;2022-09-09T15:16:47;44.27;;;28.50;;
17858;SDS011;35426;30.698;104.050;2022-09-09T15:19:21;43.93;;;27.80;;
17858;SDS011;35426;30.698;104.050;2022-09-09T15:21:55;44.60;;;29.77;;
17858;SDS011;35426;30.698;104.050;2022-09-09T15:24:31;38.93;;;28.07;;
17858;SDS011;35426;30.698;104.050;2022-09-09T15:27:09;39.73;;;27.70;;
17858;SDS011;35426;30.698;104.050;2022-09-09T15:29:44;40.03;;;29.30;;
17858;SDS011;35426;30.698;104.050;2022-09-09T15:32:23;38.13;;;27.17;;